Terminal Aerodrome Forecast
Issued by NWS Bismarck, ND

Home | Current Version | Previous Version | Text Only | Print | Product List | Glossary Off
Versions: 1 2 3 4 5 6 7 8 9 10 11 12 13 14 15

073
FTUS43 KBIS 270423 AAB
TAFISN
TAF AMD
KISN 270423Z 2704/2724 03007KT 4SM -RA BR OVC006
      TEMPO 2704/2706 2SM -RA BR OVC004
     FM270600 06005KT 4SM -RASN OVC008
     FM271600 06011KT 6SM -RA OVC010
     FM272300 07011KT P6SM -RA OVC025=

USA.gov is the U.S. government's official web portal to all federal, state and local government web resources and services.